28 minutes ago
Runway Headwind Crosswind Length
3/21 4 kt 3 kt 9,843 ft
METAR EHEH 231725Z AUTO 36006KT 340V050 9999 OVC035 17/11 Q1021 BLU NOSIG

METAR definition | Embed

METAR Eindhoven Air Base

Eindhoven Air Base is a large airport in Eindhoven, The Netherlands. The airport has one runway: 3/21 (9,843 ft)

This report was made for Eindhoven Air Base on June 23, 2021 7:25 pm, local time.

Airport observations

The wind is from direction north (360°) with a speed of 6 kt. The wind direction varies between northnorthwest (340°) and northeast (050°).

Visibility is 6¼ mi or more.

There are overcast clouds at an altitude of 3,500 ft. The ceiling, broken or more, is 3,500 ft.

The temperature and wind chill are 63 °F. The dew point is 52 °F, the relative humidity is 68%. The air pressure at sea level is 30.15 inHg (QNH).

Daylight period

Today the sun rises at 5:22 am and sets at 9:59 pm. This applies to Eindhoven Air Base, the universal daylight period may be different. The difference between the local time and UTC is +2 hour. Daylight saving time is currently in progress.

Historical data

Donate

Will you help us to keep Metar-Taf.com running?
Your contribution helps further development of the site and to pay for the expenses.

No more ads

Are you donating $ 5 or more? Then we'll never show you ads again, as a token of our eternal gratitude!
Log in before you donate

Do you want the flying weather of Eindhoven Air Base on your website? Read more   Free!